logo
Search for airport 
image banner adimage banner adimage banner ad
image banner ad

YPNA - Pinnarendi

Located in Minnamoolka, Australia

ICAO - , IATA -

Data provided by Airmate  

General information

Coordinates: S18°2'18" E144°52'59"
Elevation is 2500 feet MSL.
Magnetic variation is 7° East
View others Airports in Queensland

Operational data

Special qualification required
Current time UTC:
Current local time:
Weather at : - ( 0 km )
METAR: KSHV 281156Z 32025G32KT 8SM SCT018 BKN030 BKN180 OVC250 22/17 A2985 RMK SLPNO
View NOTAMs / SUP AIP / TFR affecting this airport [VIEW]
Communications frequencies: [VIEW]

Runways:

RWY identifierQFULength (ft)Width (ft)SurfaceLDA (ft)
09100°396163DIRT
27280°396163DIRT

Airport contact information

Address: Minnamoolka Australia

Satellite view of YPNA